createdAt,value
2022-08-30T00:03:46.178Z,49.92
2022-08-30T00:08:41.827Z,49.91
2022-08-30T00:13:35.688Z,49.95
2022-08-30T00:18:32.047Z,50.48
2022-08-30T00:23:26.042Z,50.36
2022-08-30T00:28:25.175Z,50.60
2022-08-30T00:33:21.167Z,50.28
2022-08-30T00:38:15.628Z,50.28
2022-08-30T00:43:15.926Z,50.67
2022-08-30T00:48:10.945Z,50.75
2022-08-30T00:53:08.300Z,50.46
2022-08-30T00:58:05.150Z,51.93
2022-08-30T01:03:01.991Z,51.10
2022-08-30T01:07:58.958Z,51.31
2022-08-30T01:12:55.135Z,52.31
2022-08-30T01:17:54.410Z,52.30
2022-08-30T01:23:04.171Z,53.01
2022-08-30T01:28:04.714Z,52.75
2022-08-30T01:33:00.371Z,54.18
2022-08-30T01:37:53.662Z,53.91
2022-08-30T01:42:49.093Z,54.30
2022-08-30T01:47:42.513Z,54.94
2022-08-30T01:52:36.100Z,56.01
2022-08-30T01:57:29.537Z,56.43
2022-08-30T02:02:28.190Z,56.05
2022-08-30T02:07:21.722Z,56.00
2022-08-30T02:12:15.490Z,56.00
2022-08-30T02:17:11.853Z,56.29
2022-08-30T02:22:07.015Z,56.15
2022-08-30T02:27:00.345Z,56.89
2022-08-30T02:32:02.675Z,57.38
2022-08-30T02:36:56.517Z,57.84
2022-08-30T02:41:51.460Z,58.47
2022-08-30T02:46:45.611Z,59.11
2022-08-30T02:51:39.913Z,59.96
2022-08-30T02:56:33.248Z,60.39
2022-08-30T03:01:29.428Z,61.30
2022-08-30T03:06:22.972Z,61.68
2022-08-30T03:11:16.403Z,61.75
2022-08-30T03:16:10.511Z,62.51
2022-08-30T03:21:11.551Z,62.89
2022-08-30T03:26:05.243Z,63.34
2022-08-30T03:30:58.521Z,63.86
2022-08-30T03:35:51.793Z,63.94
2022-08-30T03:40:46.840Z,64.50
2022-08-30T03:45:40.138Z,65.12
2022-08-30T03:50:35.374Z,65.37
2022-08-30T03:55:29.975Z,65.23
2022-08-30T04:00:25.088Z,65.38
2022-08-30T04:05:18.809Z,65.50
2022-08-30T04:10:12.767Z,65.68
2022-08-30T04:15:07.782Z,65.45
2022-08-30T04:20:02.465Z,65.11
2022-08-30T04:24:55.774Z,65.06
2022-08-30T04:29:49.608Z,65.80
2022-08-30T04:34:43.050Z,65.34
2022-08-30T04:39:38.013Z,65.33
2022-08-30T04:44:33.011Z,65.25
2022-08-30T04:49:29.782Z,65.28
2022-08-30T04:54:23.357Z,65.22
2022-08-30T04:59:18.067Z,64.73
2022-08-30T05:04:11.444Z,64.70
2022-08-30T05:09:06.498Z,63.93
2022-08-30T05:14:00.311Z,64.45
2022-08-30T05:18:55.955Z,64.25
2022-08-30T05:23:49.952Z,64.38
2022-08-30T05:28:43.364Z,64.32
2022-08-30T05:33:38.832Z,64.13
2022-08-30T05:38:33.880Z,63.94
2022-08-30T05:43:30.005Z,63.25
2022-08-30T05:48:23.712Z,63.16
2022-08-30T05:53:17.357Z,63.41
2022-08-30T05:58:12.181Z,62.82
2022-08-30T06:03:05.598Z,62.65
2022-08-30T06:07:58.884Z,61.59
2022-08-30T06:12:52.278Z,60.67
2022-08-30T06:17:47.126Z,60.46
2022-08-30T06:22:40.481Z,59.69
2022-08-30T06:27:33.958Z,58.48
2022-08-30T06:32:27.275Z,56.75
2022-08-30T06:37:29.543Z,56.94
2022-08-30T06:42:24.433Z,56.29
2022-08-30T06:47:17.710Z,55.68
2022-08-30T06:52:11.287Z,56.41
2022-08-30T06:57:06.338Z,57.41
2022-08-30T07:02:00.042Z,56.79
2022-08-30T07:06:53.477Z,56.38
2022-08-30T07:11:47.078Z,56.18
2022-08-30T07:16:44.529Z,54.99
2022-08-30T07:21:43.459Z,54.95
2022-08-30T07:26:41.439Z,54.13
2022-08-30T07:31:36.393Z,53.71
2022-08-30T07:36:31.213Z,53.07
2022-08-30T07:41:27.717Z,52.77
2022-08-30T07:46:25.372Z,51.77
2022-08-30T07:51:21.814Z,51.13
2022-08-30T07:56:17.068Z,50.82
2022-08-30T08:01:12.622Z,50.04
2022-08-30T08:06:08.440Z,50.44
2022-08-30T08:11:09.776Z,49.21
2022-08-30T08:16:04.880Z,49.24
2022-08-30T08:20:58.325Z,48.59
2022-08-30T08:25:51.863Z,47.01
2022-08-30T08:30:48.246Z,46.56
2022-08-30T08:35:43.441Z,44.19
2022-08-30T08:40:44.533Z,42.11
2022-08-30T08:45:48.627Z,39.59
2022-08-30T08:51:02.814Z,37.63
2022-08-30T08:55:56.275Z,36.63
2022-08-30T09:00:49.560Z,36.18
2022-08-30T09:05:44.767Z,35.46
2022-08-30T09:10:50.802Z,34.56
2022-08-30T09:15:44.618Z,34.37
2022-08-30T09:20:41.397Z,34.17
2022-08-30T09:25:41.278Z,33.56
2022-08-30T09:30:40.365Z,33.55
2022-08-30T09:35:37.306Z,33.59
2022-08-30T09:40:38.672Z,33.29
2022-08-30T09:45:34.981Z,34.02
2022-08-30T09:50:36.580Z,33.95
2022-08-30T09:55:46.800Z,33.76
2022-08-30T10:00:44.791Z,33.14
2022-08-30T10:05:52.064Z,32.82
2022-08-30T10:10:52.646Z,33.21
2022-08-30T10:15:50.656Z,33.11
2022-08-30T10:20:52.956Z,32.12
2022-08-30T10:25:54.515Z,31.11
2022-08-30T10:30:59.326Z,30.31
2022-08-30T10:35:58.302Z,30.45
2022-08-30T10:41:19.831Z,28.80
2022-08-30T10:46:21.248Z,28.32
2022-08-30T10:51:24.092Z,28.37
2022-08-30T10:56:21.259Z,28.13
2022-08-30T11:01:38.686Z,27.78
2022-08-30T11:06:46.427Z,27.29
2022-08-30T11:12:00.532Z,25.62
2022-08-30T11:16:57.083Z,24.81
2022-08-30T11:21:52.543Z,23.97
2022-08-30T11:27:11.266Z,22.87
2022-08-30T11:32:24.061Z,21.37
2022-08-30T11:37:37.491Z,20.14
2022-08-30T11:42:37.332Z,19.96
2022-08-30T11:47:40.846Z,19.13
2022-08-30T11:52:56.664Z,19.13
2022-08-30T11:57:58.588Z,19.32
2022-08-30T12:02:59.137Z,18.50
2022-08-30T12:08:03.019Z,18.21
2022-08-30T12:12:57.362Z,18.36
2022-08-30T12:18:16.697Z,17.85
2022-08-30T12:23:22.449Z,17.55
2022-08-30T12:28:26.210Z,17.02
2022-08-30T12:33:29.376Z,17.30
2022-08-30T12:38:27.462Z,17.43
2022-08-30T12:43:38.932Z,17.93
2022-08-30T12:48:38.529Z,16.87
2022-08-30T12:53:37.215Z,17.10
2022-08-30T12:58:43.553Z,17.33
2022-08-30T13:03:38.180Z,18.03
2022-08-30T13:08:38.140Z,17.78
2022-08-30T13:13:39.253Z,17.45
2022-08-30T13:18:32.658Z,17.72
2022-08-30T13:23:30.666Z,18.03
2022-08-30T13:28:25.354Z,17.82
2022-08-30T13:33:19.107Z,17.74
2022-08-30T13:38:17.429Z,17.95
2022-08-30T13:43:10.719Z,17.41
2022-08-30T13:48:10.808Z,17.58
2022-08-30T13:53:04.361Z,17.08
2022-08-30T13:57:58.050Z,16.80
2022-08-30T14:02:54.153Z,17.27
2022-08-30T14:07:54.840Z,17.24
2022-08-30T14:13:02.542Z,17.12
2022-08-30T14:18:01.637Z,17.12
2022-08-30T14:29:15.610Z,18.46
2022-08-30T14:34:11.446Z,17.47
2022-08-30T14:39:09.580Z,17.08
2022-08-30T14:44:02.903Z,17.31
2022-08-30T14:48:56.250Z,17.46
2022-08-30T14:53:53.204Z,17.29
2022-08-30T14:58:49.139Z,17.82
2022-08-30T15:03:42.991Z,17.87
2022-08-30T15:08:38.048Z,18.84
2022-08-30T15:13:32.712Z,19.41
2022-08-30T15:18:27.768Z,20.46
2022-08-30T15:23:22.844Z,20.85
2022-08-30T15:28:18.397Z,22.01
2022-08-30T15:33:12.018Z,22.82
2022-08-30T15:38:06.822Z,23.41
2022-08-30T15:43:00.086Z,23.35
2022-08-30T15:47:53.309Z,23.75
2022-08-30T15:52:46.659Z,24.19
2022-08-30T15:57:41.529Z,25.06
2022-08-30T16:02:35.086Z,25.43
2022-08-30T16:07:28.469Z,25.92
2022-08-30T16:12:23.557Z,25.94
2022-08-30T16:17:19.038Z,26.70
2022-08-30T16:22:14.501Z,26.80
2022-08-30T16:27:21.138Z,27.52
2022-08-30T16:32:14.736Z,27.59
2022-08-30T16:37:09.546Z,28.05
2022-08-30T16:42:03.494Z,28.64
2022-08-30T16:47:00.058Z,28.89
2022-08-30T16:51:53.521Z,29.54
2022-08-30T16:56:48.184Z,29.69
2022-08-30T17:01:56.091Z,30.50
2022-08-30T17:06:52.706Z,31.30
2022-08-30T17:11:52.381Z,31.99
2022-08-30T17:16:58.086Z,31.99
2022-08-30T17:22:01.536Z,33.13
2022-08-30T17:26:58.371Z,33.57
2022-08-30T17:31:54.689Z,34.23
2022-08-30T17:36:51.681Z,34.43
2022-08-30T17:41:50.483Z,34.84
2022-08-30T17:46:48.900Z,34.94
2022-08-30T17:51:47.723Z,34.77
2022-08-30T17:56:51.075Z,34.89
2022-08-30T18:01:57.725Z,35.18
2022-08-30T18:06:55.796Z,35.55
2022-08-30T18:11:56.303Z,36.25
2022-08-30T18:16:54.633Z,36.42
2022-08-30T18:21:48.315Z,36.32
2022-08-30T18:26:45.265Z,36.83
2022-08-30T18:31:38.610Z,36.62
2022-08-30T18:36:35.701Z,36.87
2022-08-30T18:41:42.909Z,37.04
2022-08-30T18:46:45.242Z,37.56
2022-08-30T18:51:56.369Z,37.79
2022-08-30T18:56:55.359Z,38.47
2022-08-30T19:01:51.354Z,38.54
2022-08-30T19:06:47.445Z,38.92
2022-08-30T19:11:45.179Z,38.98
2022-08-30T19:16:39.622Z,39.19
2022-08-30T19:21:40.899Z,39.38
2022-08-30T19:26:39.760Z,39.85
2022-08-30T19:31:41.711Z,40.03
2022-08-30T19:36:35.273Z,40.60
2022-08-30T19:41:29.764Z,40.83
2022-08-30T19:46:28.258Z,41.05
2022-08-30T19:51:23.819Z,41.28
2022-08-30T19:56:20.703Z,41.71
2022-08-30T20:01:33.083Z,41.75
2022-08-30T20:06:33.879Z,42.43
2022-08-30T20:11:34.378Z,42.61
2022-08-30T20:16:33.168Z,43.03
2022-08-30T20:21:32.419Z,43.66
2022-08-30T20:26:34.252Z,44.37
2022-08-30T20:31:33.824Z,44.67
2022-08-30T20:36:29.361Z,45.04
2022-08-30T20:41:29.726Z,45.58
2022-08-30T20:46:23.045Z,46.02
2022-08-30T20:51:19.499Z,46.13
2022-08-30T20:56:13.589Z,46.44
2022-08-30T21:01:10.774Z,46.78
2022-08-30T21:06:04.226Z,46.93
2022-08-30T21:10:57.676Z,47.40
2022-08-30T21:15:57.644Z,47.76
2022-08-30T21:20:57.606Z,48.02
2022-08-30T21:25:52.960Z,48.25
2022-08-30T21:30:49.039Z,48.58
2022-08-30T21:35:59.991Z,49.04
2022-08-30T21:40:57.096Z,49.36
2022-08-30T21:45:55.325Z,49.82
2022-08-30T21:50:48.732Z,50.39
2022-08-30T21:55:43.665Z,50.01
2022-08-30T22:00:40.878Z,50.28
2022-08-30T22:05:36.946Z,50.58
2022-08-30T22:10:33.207Z,50.22
2022-08-30T22:15:32.113Z,50.07
2022-08-30T22:20:27.563Z,50.15
2022-08-30T22:25:23.977Z,50.03
2022-08-30T22:30:17.834Z,50.04
2022-08-30T22:35:11.697Z,50.05
2022-08-30T22:40:07.295Z,50.30
2022-08-30T22:45:00.605Z,50.18
2022-08-30T22:49:54.062Z,50.62
2022-08-30T22:54:48.342Z,50.51
2022-08-30T22:59:43.125Z,50.75
2022-08-30T23:04:37.707Z,50.78
2022-08-30T23:09:31.365Z,50.98
2022-08-30T23:14:24.738Z,51.30
2022-08-30T23:19:19.583Z,51.67
2022-08-30T23:24:30.411Z,52.00
2022-08-30T23:29:41.310Z,52.40
2022-08-30T23:34:54.054Z,52.70
2022-08-30T23:40:04.797Z,53.06
2022-08-30T23:45:15.660Z,53.68
2022-08-30T23:50:27.989Z,53.76
2022-08-30T23:55:38.622Z,54.21
